Terminal Aerodrome Forecast
Issued by NWS St Louis, MO

Home | Current Version | Previous Version | Text Only | Print | Product List | Glossary On
Versions: 1 2 3 4 5 6 7 8 9 10 11 12 13
442
FTUS43 KLSX 211725
TAFCOU
TAF
KCOU 211725Z 2118/2218 34014G22KT P6SM OVC100
     FM220100 35010KT P6SM SKC
     FM220600 34006KT P6SM SKC=

USA.gov is the U.S. government's official web portal to all federal, state and local government web resources and services.